Time;durP1;ratioP1;P1;durP2;ratioP2;P2;SDS_P1;SDS_P2;PMS_P1;PMS_P2;Temp;Humidity;BMP_temperature;BMP_pressure;BME280_temperature;BME280_humidity;BME280_pressure;Samples;Min_cycle;Max_cycle;Signal;HPM_P1;HPM_P2
2021/03/06 00:01:58;;;;;;;8.73;2.17;;;2.20;64.90;;;;;;5072173;28;20054;-79
2021/03/06 00:04:24;;;;;;;6.83;1.20;;;2.20;64.70;;;;;;5073452;28;20066;-79
2021/03/06 00:06:49;;;;;;;8.33;1.30;;;2.20;64.80;;;;;;5071945;28;20028;-79
2021/03/06 00:09:15;;;;;;;5.93;1.40;;;2.20;65.00;;;;;;5055193;28;20045;-79
2021/03/06 00:11:41;;;;;;;7.87;1.30;;;2.00;64.80;;;;;;5071892;28;20048;-79
2021/03/06 00:14:06;;;;;;;7.53;1.30;;;2.10;65.00;;;;;;5043446;28;20036;-79
2021/03/06 00:16:32;;;;;;;7.10;1.13;;;2.00;65.00;;;;;;5052679;28;20029;-80
2021/03/06 00:18:57;;;;;;;7.23;1.10;;;2.00;65.30;;;;;;5051800;28;20036;-79
2021/03/06 00:21:23;;;;;;;3.80;0.90;;;2.00;65.60;;;;;;5034043;28;20120;-79
2021/03/06 00:23:48;;;;;;;3.70;1.13;;;2.00;65.50;;;;;;5051896;28;20115;-79
2021/03/06 00:26:14;;;;;;;6.30;1.37;;;2.00;66.00;;;;;;5050857;28;20086;-79
2021/03/06 00:28:40;;;;;;;6.77;1.63;;;2.00;65.90;;;;;;5053075;28;20441;-79
2021/03/06 00:31:05;;;;;;;11.03;1.23;;;1.90;66.60;;;;;;5051901;28;20035;-79
2021/03/06 00:33:31;;;;;;;7.53;1.23;;;1.90;66.40;;;;;;5051704;28;20029;-80
2021/03/06 00:35:57;;;;;;;9.27;1.90;;;1.90;66.30;;;;;;5035076;28;20060;-79
2021/03/06 00:38:22;;;;;;;7.47;1.50;;;1.90;66.50;;;;;;5052721;28;20029;-79
2021/03/06 00:40:48;;;;;;;5.27;1.30;;;1.90;66.90;;;;;;5051829;28;20040;-80
2021/03/06 00:43:13;;;;;;;8.80;1.93;;;1.90;67.10;;;;;;5035024;28;20508;-79
2021/03/06 00:45:39;;;;;;;7.00;1.50;;;1.90;67.10;;;;;;5051576;28;20021;-79
2021/03/06 00:48:05;;;;;;;6.50;1.57;;;1.80;66.80;;;;;;5051483;28;20419;-79
2021/03/06 00:50:35;;;;;;;4.13;1.17;;;1.80;66.60;;;;;;5051559;28;20496;-79
2021/03/06 00:53:01;;;;;;;7.03;1.70;;;1.80;66.60;;;;;;5052980;28;20021;-79
2021/03/06 00:55:27;;;;;;;8.53;1.53;;;1.70;66.90;;;;;;5051706;28;20076;-80
2021/03/06 00:57:53;;;;;;;5.67;1.10;;;1.70;66.90;;;;;;5051355;28;20087;-79
2021/03/06 01:00:19;;;;;;;6.90;1.10;;;1.70;66.80;;;;;;5051240;28;20030;-79
2021/03/06 01:02:44;;;;;;;4.37;1.07;;;1.60;66.80;;;;;;5051385;28;20025;-80
2021/03/06 01:05:11;;;;;;;4.47;1.20;;;1.60;66.70;;;;;;5051356;28;20025;-79
2021/03/06 01:07:36;;;;;;;8.80;1.43;;;1.60;66.70;;;;;;5037129;28;20017;-80
2021/03/06 01:10:27;;;;;;;7.13;1.33;;;1.50;66.80;;;;;;5055362;28;20159;-79
2021/03/06 01:12:53;;;;;;;5.57;1.20;;;1.50;66.80;;;;;;5055457;28;20049;-80
2021/03/06 01:15:19;;;;;;;5.67;1.57;;;1.40;66.80;;;;;;5056729;28;20425;-80
2021/03/06 01:17:47;;;;;;;3.70;1.00;;;1.40;66.80;;;;;;5056595;28;20419;-79
2021/03/06 01:20:13;;;;;;;3.67;1.17;;;1.40;66.90;;;;;;5056651;28;20460;-80
2021/03/06 01:22:39;;;;;;;5.33;1.47;;;1.40;67.00;;;;;;5055092;28;20439;-79
2021/03/06 01:25:06;;;;;;;5.33;1.20;;;1.40;67.00;;;;;;5055437;28;20025;-80
2021/03/06 01:27:32;;;;;;;7.00;1.40;;;1.30;67.10;;;;;;5056401;28;20504;-80
2021/03/06 01:29:57;;;;;;;5.87;1.40;;;1.30;67.20;;;;;;5055248;28;20108;-80
2021/03/06 01:32:23;;;;;;;11.93;1.63;;;1.20;67.30;;;;;;5056256;28;20100;-74
2021/03/06 01:34:49;;;;;;;4.80;1.20;;;1.20;67.40;;;;;;5055022;28;20415;-75
2021/03/06 01:37:15;;;;;;;6.63;2.43;;;1.20;67.60;;;;;;5038484;28;20029;-74
2021/03/06 01:39:40;;;;;;;5.63;1.57;;;1.20;67.60;;;;;;5054977;28;20028;-74
2021/03/06 01:42:08;;;;;;;5.70;1.20;;;1.10;67.60;;;;;;5038286;28;20057;-74
2021/03/06 01:44:33;;;;;;;9.43;1.43;;;1.10;67.80;;;;;;5054768;28;20018;-74
2021/03/06 01:46:59;;;;;;;6.17;0.93;;;1.10;67.90;;;;;;5038071;28;20271;-75
2021/03/06 01:49:26;;;;;;;5.57;1.57;;;1.10;68.00;;;;;;5038042;28;20025;-74
2021/03/06 01:51:52;;;;;;;7.03;1.20;;;1.00;68.00;;;;;;5055863;28;20021;-75
2021/03/06 01:54:22;;;;;;;5.40;1.27;;;1.00;68.10;;;;;;5054552;28;20036;-74
2021/03/06 01:56:48;;;;;;;5.97;1.20;;;0.90;68.20;;;;;;5054528;28;20021;-74
2021/03/06 01:59:15;;;;;;;5.43;1.10;;;0.90;68.30;;;;;;5055717;28;20028;-74
2021/03/06 02:01:41;;;;;;;4.07;1.03;;;0.90;68.50;;;;;;5054563;28;20612;-80
2021/03/06 02:04:07;;;;;;;5.33;1.10;;;0.90;68.60;;;;;;5054564;28;20044;-79
2021/03/06 02:06:33;;;;;;;4.53;1.03;;;0.90;68.70;;;;;;5054447;28;20031;-80
2021/03/06 02:08:58;;;;;;;2.80;1.37;;;0.80;68.70;;;;;;5055593;28;20729;-80
2021/03/06 02:11:48;;;;;;;4.70;1.10;;;0.90;68.90;;;;;;5055479;28;20045;-80
2021/03/06 02:14:51;;;;;;;5.00;1.10;;;0.90;69.10;;;;;;5055550;28;20032;-80
2021/03/06 02:17:39;;;;;;;6.23;0.90;;;0.80;69.20;;;;;;5055528;28;20075;-80
2021/03/06 02:20:29;;;;;;;7.43;1.13;;;0.90;69.50;;;;;;5054562;28;20282;-80
2021/03/06 02:23:32;;;;;;;3.87;1.00;;;0.90;69.70;;;;;;5054104;28;20389;-80
2021/03/06 02:26:04;;;;;;;7.73;1.73;;;0.90;69.90;;;;;;5053985;28;20263;-80
2021/03/06 02:28:54;;;;;;;7.00;1.50;;;0.90;69.70;;;;;;5055210;28;20620;-80
2021/03/06 02:31:21;;;;;;;4.83;1.03;;;0.90;69.90;;;;;;5055155;28;20274;-80
2021/03/06 02:33:55;;;;;;;3.43;1.00;;;0.80;70.00;;;;;;5053777;28;20082;-80
2021/03/06 02:36:25;;;;;;;3.50;1.10;;;0.90;70.40;;;;;;5055098;28;20017;-80
2021/03/06 02:38:55;;;;;;;5.07;0.87;;;0.80;70.60;;;;;;5055056;28;20108;-79
2021/03/06 02:41:21;;;;;;;2.97;0.90;;;0.80;70.70;;;;;;5053641;28;20276;-79
2021/03/06 02:43:51;;;;;;;5.00;1.10;;;0.80;70.80;;;;;;5053821;28;20299;-80
2021/03/06 02:46:20;;;;;;;4.80;1.10;;;0.80;71.40;;;;;;5053629;28;20276;-80
2021/03/06 02:48:45;;;;;;;7.30;1.30;;;0.80;71.00;;;;;;5053724;28;20029;-80
2021/03/06 02:51:11;;;;;;;4.33;1.23;;;0.80;71.00;;;;;;5054819;28;20032;-80
2021/03/06 02:53:37;;;;;;;4.50;1.23;;;0.80;71.20;;;;;;5053623;28;20090;-80
2021/03/06 02:56:02;;;;;;;4.70;1.93;;;0.70;71.20;;;;;;5037026;28;20032;-80
2021/03/06 02:58:46;;;;;;;10.47;1.23;;;0.70;71.30;;;;;;5053316;28;20033;-80
2021/03/06 03:01:36;;;;;;;4.00;1.00;;;0.70;71.60;;;;;;5053442;28;20025;-80
2021/03/06 03:04:18;;;;;;;4.33;1.13;;;0.70;71.90;;;;;;5054603;28;20049;-80
2021/03/06 03:06:48;;;;;;;5.33;1.10;;;0.70;72.50;;;;;;5054797;28;20426;-80
2021/03/06 03:09:18;;;;;;;4.50;1.30;;;0.70;72.00;;;;;;5053449;28;20532;-80
2021/03/06 03:11:53;;;;;;;6.47;1.47;;;0.70;72.80;;;;;;5053063;28;20053;-80
2021/03/06 03:14:28;;;;;;;5.60;1.43;;;0.70;72.30;;;;;;5053217;28;20025;-81
2021/03/06 03:17:00;;;;;;;6.67;1.00;;;0.70;72.50;;;;;;5053215;28;20033;-80
2021/03/06 03:19:30;;;;;;;3.47;0.90;;;0.60;72.60;;;;;;5053047;28;20295;-80
2021/03/06 03:22:00;;;;;;;2.97;1.00;;;0.60;72.90;;;;;;5054340;28;20329;-80
2021/03/06 03:24:33;;;;;;;5.70;1.03;;;0.60;73.10;;;;;;5052829;28;20337;-80
2021/03/06 03:27:00;;;;;;;6.95;1.13;;;0.60;73.20;;;;;;5052851;28;20556;-79
2021/03/06 03:29:26;;;;;;;5.27;0.90;;;0.60;73.60;;;;;;5036214;28;20040;-80
2021/03/06 03:31:53;;;;;;;6.67;1.20;;;0.60;74.30;;;;;;5035331;28;20271;-80
2021/03/06 03:34:21;;;;;;;6.23;1.80;;;0.60;74.20;;;;;;5053017;28;20370;-80
2021/03/06 03:36:48;;;;;;;6.30;1.17;;;0.60;74.00;;;;;;5053142;28;20283;-80
2021/03/06 03:39:14;;;;;;;5.20;1.13;;;0.60;75.00;;;;;;5052876;28;20628;-80
2021/03/06 03:41:40;;;;;;;5.30;1.30;;;0.60;74.40;;;;;;5053963;28;20320;-80
2021/03/06 03:44:07;;;;;;;5.40;1.10;;;0.60;75.00;;;;;;5052667;28;20430;-79
2021/03/06 03:46:34;;;;;;;5.23;1.30;;;0.60;75.00;;;;;;5035914;28;20032;-80
2021/03/06 03:49:02;;;;;;;4.93;1.73;;;0.60;74.80;;;;;;5052615;28;20580;-80
2021/03/06 03:51:28;;;;;;;4.27;1.30;;;0.50;74.60;;;;;;5053769;28;20281;-80
2021/03/06 03:53:54;;;;;;;5.93;1.37;;;0.50;74.50;;;;;;5052161;28;20037;-80
2021/03/06 03:56:20;;;;;;;3.93;1.20;;;0.50;74.60;;;;;;5053662;28;20381;-79
2021/03/06 03:58:48;;;;;;;2.80;0.93;;;0.40;74.50;;;;;;5052386;28;20288;-79
2021/03/06 04:01:14;;;;;;;3.97;1.23;;;0.40;74.70;;;;;;5053722;28;20024;-80
2021/03/06 04:03:40;;;;;;;8.60;1.33;;;0.40;74.90;;;;;;5053582;28;20272;-80
2021/03/06 04:06:06;;;;;;;15.30;1.50;;;0.40;75.00;;;;;;5052323;28;20025;-80
2021/03/06 04:08:32;;;;;;;6.53;1.20;;;0.30;75.10;;;;;;5035555;28;20029;-80
2021/03/06 04:10:58;;;;;;;3.60;1.13;;;0.30;75.20;;;;;;5035285;28;20688;-80
2021/03/06 04:13:23;;;;;;;4.47;1.20;;;0.20;75.40;;;;;;5053364;28;20111;-80
2021/03/06 04:15:49;;;;;;;4.17;1.50;;;0.10;75.40;;;;;;5053264;28;20029;-80
2021/03/06 04:18:14;;;;;;;3.73;1.33;;;0.10;75.60;;;;;;5052355;28;20067;-80
2021/03/06 04:20:40;;;;;;;5.53;1.50;;;0.10;75.80;;;;;;5053151;28;20053;-79
2021/03/06 04:23:06;;;;;;;5.13;1.20;;;0.00;75.90;;;;;;5051748;28;20024;-80
2021/03/06 04:25:32;;;;;;;6.10;1.70;;;0.10;76.00;;;;;;5035258;28;20283;-80
2021/03/06 04:27:57;;;;;;;4.33;1.30;;;0.00;76.10;;;;;;5053076;28;20040;-80
2021/03/06 04:30:24;;;;;;;5.30;0.90;;;0.00;76.20;;;;;;5035123;28;20127;-79
2021/03/06 04:32:49;;;;;;;6.00;1.20;;;0.00;76.20;;;;;;5051778;28;20029;-80
2021/03/06 04:35:15;;;;;;;4.50;1.53;;;-0.10;76.30;;;;;;5051858;28;20281;-80
2021/03/06 04:37:41;;;;;;;4.73;1.20;;;-0.10;76.40;;;;;;5051656;28;20492;-80
2021/03/06 04:40:12;;;;;;;7.23;1.10;;;-0.10;76.40;;;;;;5035036;28;20025;-80
2021/03/06 04:42:38;;;;;;;7.97;1.10;;;-0.10;76.40;;;;;;5052534;28;20333;-80
2021/03/06 04:45:06;;;;;;;3.60;1.13;;;-0.10;76.40;;;;;;5051692;28;20272;-80
2021/03/06 04:47:31;;;;;;;4.27;1.23;;;-0.10;76.50;;;;;;5051549;28;20275;-79
2021/03/06 04:49:57;;;;;;;3.50;0.93;;;-0.20;76.50;;;;;;5051493;28;20279;-80
2021/03/06 04:52:23;;;;;;;6.43;1.50;;;-0.10;76.60;;;;;;5051607;28;20029;-80
2021/03/06 04:54:49;;;;;;;4.53;1.00;;;-0.20;76.70;;;;;;5052914;28;20039;-80
2021/03/06 04:57:15;;;;;;;10.60;1.30;;;-0.20;76.80;;;;;;5051577;28;20459;-80
2021/03/06 04:59:42;;;;;;;5.03;1.00;;;-0.20;76.90;;;;;;5051399;28;20323;-80
2021/03/06 05:02:07;;;;;;;8.30;1.23;;;-0.20;77.00;;;;;;5052286;28;20032;-80
2021/03/06 05:04:33;;;;;;;3.77;1.00;;;-0.20;77.00;;;;;;5050625;28;20279;-80
2021/03/06 05:06:59;;;;;;;6.47;1.33;;;-0.20;77.10;;;;;;5050025;28;20063;-80
2021/03/06 05:09:24;;;;;;;6.87;1.70;;;-0.30;77.10;;;;;;5050742;28;20029;-79
2021/03/06 05:11:50;;;;;;;6.10;1.10;;;-0.30;77.30;;;;;;5034692;28;20059;-80
2021/03/06 05:14:16;;;;;;;3.70;1.13;;;-0.20;77.40;;;;;;5050533;28;20029;-79
2021/03/06 05:16:42;;;;;;;8.70;1.60;;;-0.20;77.60;;;;;;5051660;28;20029;-80
2021/03/06 05:19:07;;;;;;;5.73;1.07;;;-0.20;77.70;;;;;;5051407;28;20029;-80
2021/03/06 05:21:33;;;;;;;4.30;1.13;;;-0.30;77.80;;;;;;5034686;28;20267;-80
2021/03/06 05:23:59;;;;;;;4.47;1.33;;;-0.30;77.80;;;;;;5052554;28;20060;-80
2021/03/06 05:26:24;;;;;;;3.90;1.10;;;-0.30;77.90;;;;;;5034592;28;20381;-79
2021/03/06 05:28:50;;;;;;;3.97;1.33;;;-0.30;78.00;;;;;;5051184;28;20035;-80
2021/03/06 05:31:16;;;;;;;3.67;1.20;;;-0.30;78.10;;;;;;5034660;28;20033;-80
2021/03/06 05:33:41;;;;;;;5.50;1.00;;;-0.40;78.10;;;;;;5034486;28;20025;-80
2021/03/06 05:36:07;;;;;;;6.57;1.10;;;-0.30;78.20;;;;;;5051216;28;20032;-80
2021/03/06 05:38:32;;;;;;;5.20;1.10;;;-0.30;78.20;;;;;;5051017;28;20572;-80
2021/03/06 05:40:59;;;;;;;6.77;1.40;;;-0.40;78.20;;;;;;5051046;28;20029;-80
2021/03/06 05:43:25;;;;;;;5.10;1.20;;;-0.30;78.30;;;;;;5051081;28;20025;-80
2021/03/06 05:45:51;;;;;;;6.60;1.00;;;-0.40;78.30;;;;;;5051100;28;20362;-80
2021/03/06 05:48:17;;;;;;;5.90;1.27;;;-0.40;78.40;;;;;;5054889;28;20862;-80
2021/03/06 05:50:43;;;;;;;5.90;1.20;;;-0.40;78.50;;;;;;5067301;28;20078;-80
2021/03/06 05:53:11;;;;;;;6.27;1.17;;;-0.40;78.60;;;;;;5070781;28;20274;-80
2021/03/06 05:55:39;;;;;;;7.43;1.30;;;-0.40;78.70;;;;;;5068399;28;20275;-80
2021/03/06 05:58:06;;;;;;;2.80;0.90;;;-0.40;78.80;;;;;;5071667;28;20282;-80
2021/03/06 06:00:33;;;;;;;3.67;1.10;;;-0.50;78.80;;;;;;5073646;28;20270;-79
2021/03/06 06:02:59;;;;;;;8.30;1.47;;;-0.50;78.90;;;;;;5054533;28;20283;-79
2021/03/06 06:05:25;;;;;;;3.87;1.07;;;-0.50;79.00;;;;;;5074297;28;20327;-79
2021/03/06 06:07:54;;;;;;;5.03;1.40;;;-0.50;79.20;;;;;;5073815;28;20028;-79
2021/03/06 06:10:20;;;;;;;5.73;1.70;;;-0.50;79.20;;;;;;5056741;28;20283;-80
2021/03/06 06:12:46;;;;;;;7.60;1.70;;;-0.50;79.40;;;;;;5054344;28;20302;-79
2021/03/06 06:15:12;;;;;;;5.33;1.07;;;-0.50;79.50;;;;;;5054481;28;20477;-80
2021/03/06 06:17:38;;;;;;;8.53;1.70;;;-0.50;79.60;;;;;;5054176;28;20025;-80
2021/03/06 06:20:05;;;;;;;7.07;1.23;;;-0.40;79.80;;;;;;5054470;28;20306;-80
2021/03/06 06:22:31;;;;;;;7.33;1.43;;;-0.40;79.90;;;;;;5055089;28;20767;-80
2021/03/06 06:24:56;;;;;;;6.53;1.20;;;-0.40;80.00;;;;;;5055550;28;20275;-80
2021/03/06 06:27:29;;;;;;;8.30;1.53;;;-0.40;80.10;;;;;;5057506;28;20037;-79
2021/03/06 06:29:57;;;;;;;6.53;1.33;;;-0.40;80.20;;;;;;5055884;28;20025;-79
2021/03/06 06:32:25;;;;;;;6.30;1.30;;;-0.40;80.30;;;;;;5055264;28;20366;-79
2021/03/06 06:35:07;;;;;;;4.47;1.20;;;-0.40;80.50;;;;;;5055761;28;20275;-79
2021/03/06 06:37:33;;;;;;;5.57;1.37;;;-0.30;80.60;;;;;;5054617;28;20669;-79
2021/03/06 06:40:23;;;;;;;3.70;1.30;;;-0.30;80.70;;;;;;5069796;28;20286;-80
2021/03/06 06:42:49;;;;;;;6.87;1.60;;;-0.30;80.60;;;;;;5070791;28;20358;-80
2021/03/06 06:45:18;;;;;;;4.47;1.67;;;-0.30;80.70;;;;;;5037136;28;20290;-79
2021/03/06 06:47:48;;;;;;;4.33;1.57;;;-0.20;80.90;;;;;;5021738;28;20786;-79
2021/03/06 06:50:29;;;;;;;11.87;2.07;;;-0.30;80.90;;;;;;5055134;28;20321;-80
2021/03/06 06:52:55;;;;;;;9.17;1.43;;;-0.20;81.10;;;;;;5054967;28;20356;-80
2021/03/06 06:55:20;;;;;;;4.97;1.40;;;-0.20;81.20;;;;;;5053810;28;20312;-79
2021/03/06 06:57:56;;;;;;;4.97;1.63;;;-0.20;81.30;;;;;;5053673;28;20098;-80
2021/03/06 07:00:22;;;;;;;5.43;1.90;;;-0.10;81.40;;;;;;5054703;28;20028;-80
2021/03/06 07:02:56;;;;;;;5.53;1.60;;;-0.10;81.50;;;;;;5062433;28;20395;-80
2021/03/06 07:05:34;;;;;;;3.63;1.43;;;0.00;81.60;;;;;;5069866;28;20054;-79
2021/03/06 07:08:02;;;;;;;5.70;1.30;;;0.10;81.60;;;;;;5080224;28;20629;-80
2021/03/06 07:10:37;;;;;;;6.90;1.30;;;0.10;81.60;;;;;;5066036;28;20291;-81
2021/03/06 07:13:05;;;;;;;5.37;1.40;;;0.20;81.60;;;;;;5074590;28;20758;-79
2021/03/06 07:15:32;;;;;;;3.70;1.43;;;0.30;81.70;;;;;;5074637;28;20286;-80
2021/03/06 07:18:01;;;;;;;9.77;1.13;;;0.30;81.70;;;;;;5065856;28;20093;-80
2021/03/06 07:20:29;;;;;;;5.13;1.43;;;0.40;81.80;;;;;;5070460;28;20026;-81
2021/03/06 07:23:11;;;;;;;6.77;2.00;;;0.40;81.80;;;;;;5068128;28;20299;-79
2021/03/06 07:25:36;;;;;;;7.77;1.57;;;0.50;81.80;;;;;;5053092;28;20778;-79
2021/03/06 07:28:02;;;;;;;7.37;1.90;;;0.50;81.70;;;;;;5036683;28;20031;-80
2021/03/06 07:30:28;;;;;;;8.17;2.17;;;0.60;81.80;;;;;;5019932;28;20078;-79
2021/03/06 07:32:55;;;;;;;4.07;1.30;;;0.60;81.80;;;;;;5039345;28;20120;-80
2021/03/06 07:35:22;;;;;;;6.13;1.67;;;0.70;81.90;;;;;;5074188;28;20388;-79
2021/03/06 07:37:56;;;;;;;4.13;1.47;;;0.70;81.90;;;;;;5071433;28;20311;-81
2021/03/06 07:40:30;;;;;;;7.80;1.40;;;0.70;82.00;;;;;;5071787;28;20013;-81
2021/03/06 07:42:59;;;;;;;7.88;1.25;;;0.80;82.10;;;;;;5061315;28;20112;-80
2021/03/06 07:45:28;;;;;;;5.23;1.53;;;0.80;82.70;;;;;;5062668;28;20380;-81
2021/03/06 07:48:06;;;;;;;6.67;1.23;;;0.90;82.20;;;;;;5074021;28;20024;-81
2021/03/06 07:50:34;;;;;;;7.13;1.57;;;0.90;82.20;;;;;;5073642;28;20020;-81
2021/03/06 07:53:02;;;;;;;5.57;1.50;;;1.00;82.30;;;;;;5072852;28;20012;-81
2021/03/06 07:55:30;;;;;;;8.47;1.40;;;1.10;83.00;;;;;;5072436;28;20557;-81
2021/03/06 07:58:01;;;;;;;6.80;1.90;;;1.10;82.50;;;;;;5072318;28;20035;-81
2021/03/06 08:00:40;;;;;;;5.73;1.43;;;1.20;82.60;;;;;;5073684;28;20027;-81
2021/03/06 08:03:21;;;;;;;5.43;1.63;;;1.30;82.70;;;;;;5053806;28;20029;-81
2021/03/06 08:05:47;;;;;;;4.70;1.70;;;1.30;82.70;;;;;;5053703;28;20079;-81
2021/03/06 08:08:34;;;;;;;6.30;1.80;;;1.40;82.70;;;;;;5052177;28;20032;-82
2021/03/06 08:11:10;;;;;;;7.33;1.60;;;1.50;82.90;;;;;;5051708;28;20131;-81
2021/03/06 08:13:40;;;;;;;7.63;1.97;;;1.50;82.90;;;;;;5068858;28;20033;-82
2021/03/06 08:16:24;;;;;;;8.00;1.37;;;1.50;82.90;;;;;;5071485;28;20017;-81
2021/03/06 08:18:49;;;;;;;6.38;1.15;;;1.60;83.00;;;;;;5071935;28;20033;-81
2021/03/06 08:21:33;;;;;;;5.90;1.70;;;1.70;83.10;;;;;;5072004;28;20059;-81
2021/03/06 08:24:14;;;;;;;7.60;1.55;;;1.80;83.20;;;;;;5072910;28;20029;-80
2021/03/06 08:26:40;;;;;;;8.60;1.90;;;1.80;83.20;;;;;;5066011;28;20493;-79
2021/03/06 08:31:56;;;;;;;6.00;1.50;;;2.00;83.40;;;;;;5073320;28;20039;-80
2021/03/06 08:34:28;;;;;;;7.37;1.67;;;2.10;83.40;;;;;;5071170;28;20032;-80
2021/03/06 08:37:21;;;;;;;4.60;1.40;;;2.10;83.50;;;;;;5071715;28;20082;-80
2021/03/06 08:39:59;;;;;;;7.37;1.57;;;2.20;83.60;;;;;;5051247;28;20045;-80
2021/03/06 08:42:27;;;;;;;7.07;1.60;;;2.30;83.70;;;;;;5051924;28;20032;-81
2021/03/06 08:44:57;;;;;;;7.10;1.50;;;2.40;83.70;;;;;;5067218;28;20059;-81
2021/03/06 08:47:29;;;;;;;6.17;1.87;;;2.50;83.80;;;;;;5056070;28;20421;-80
2021/03/06 08:49:57;;;;;;;8.70;1.43;;;2.60;84.00;;;;;;5052063;28;20029;-81
2021/03/06 08:52:28;;;;;;;6.80;1.50;;;2.70;84.00;;;;;;5051887;28;20025;-81
2021/03/06 08:54:54;;;;;;;3.87;1.40;;;2.80;83.90;;;;;;5051782;28;20052;-81
2021/03/06 08:57:35;;;;;;;5.33;1.23;;;2.90;83.80;;;;;;5035163;28;20040;-80
2021/03/06 09:00:16;;;;;;;7.37;1.93;;;2.90;83.70;;;;;;5052822;28;20036;-81
2021/03/06 09:02:42;;;;;;;6.07;1.30;;;3.10;83.70;;;;;;5058608;28;20028;-81
2021/03/06 09:05:20;;;;;;;5.27;1.00;;;3.10;83.60;;;;;;5066477;28;20029;-81
2021/03/06 09:07:49;;;;;;;7.03;1.20;;;3.30;83.70;;;;;;5070606;28;20099;-81
2021/03/06 09:10:41;;;;;;;4.80;1.27;;;3.40;83.50;;;;;;5072664;28;20031;-81
2021/03/06 09:13:16;;;;;;;7.53;1.03;;;3.50;83.50;;;;;;5064472;28;20056;-82
2021/03/06 09:15:53;;;;;;;5.20;1.17;;;3.60;83.40;;;;;;5079630;28;20107;-82
2021/03/06 09:18:26;;;;;;;5.63;1.00;;;3.70;83.10;;;;;;5056101;28;20032;-83
2021/03/06 09:21:01;;;;;;;4.85;0.73;;;3.80;82.90;;;;;;5071313;28;20027;-83
2021/03/06 09:23:34;;;;;;;5.13;1.10;;;3.90;82.70;;;;;;5071659;28;20013;-74
2021/03/06 09:26:17;;;;;;;7.43;1.17;;;4.00;82.50;;;;;;5071280;28;20017;-75
2021/03/06 09:28:44;;;;;;;6.70;1.30;;;4.10;82.30;;;;;;5073855;28;20488;-74
2021/03/06 09:31:16;;;;;;;7.97;1.23;;;4.30;82.20;;;;;;5076395;28;20051;-76
2021/03/06 09:33:42;;;;;;;5.73;0.83;;;4.40;82.00;;;;;;5075129;28;20025;-74
2021/03/06 09:36:10;;;;;;;4.97;1.20;;;4.50;81.90;;;;;;5076342;28;20036;-74
2021/03/06 09:38:44;;;;;;;6.50;1.10;;;4.70;81.60;;;;;;5076205;28;20027;-74
2021/03/06 09:41:11;;;;;;;9.35;1.10;;;4.80;81.20;;;;;;5076246;28;20024;-74
2021/03/06 09:43:38;;;;;;;4.50;0.90;;;4.80;81.00;;;;;;5058252;28;20021;-75
2021/03/06 09:46:15;;;;;;;3.17;1.27;;;5.00;80.80;;;;;;5075258;28;20020;-75
2021/03/06 09:49:00;;;;;;;4.17;0.83;;;5.20;80.40;;;;;;5074812;28;20082;-74
2021/03/06 09:51:37;;;;;;;5.63;0.80;;;5.30;80.00;;;;;;5074900;28;20021;-74
2021/03/06 09:54:03;;;;;;;4.87;0.70;;;5.60;79.60;;;;;;5074647;28;20029;-75
2021/03/06 09:56:29;;;;;;;5.90;0.90;;;5.50;79.20;;;;;;5075899;28;20024;-75
2021/03/06 09:59:00;;;;;;;8.03;1.33;;;5.70;78.40;;;;;;5074597;28;20433;-75
2021/03/06 10:01:26;;;;;;;3.13;0.80;;;5.80;78.00;;;;;;5074499;28;20023;-81
2021/03/06 10:03:52;;;;;;;4.73;0.70;;;5.80;77.30;;;;;;5057890;28;20111;-82
2021/03/06 10:06:24;;;;;;;5.83;0.70;;;5.90;76.90;;;;;;5074563;28;20459;-81
2021/03/06 10:08:55;;;;;;;8.30;1.00;;;6.00;76.30;;;;;;5074541;28;20048;-82
2021/03/06 10:11:33;;;;;;;3.73;0.80;;;6.00;75.80;;;;;;5075814;28;20089;-82
2021/03/06 10:14:00;;;;;;;3.27;0.60;;;6.10;75.30;;;;;;5068647;28;20047;-81
2021/03/06 10:16:27;;;;;;;4.00;0.60;;;6.20;75.00;;;;;;5054332;28;20436;-82
2021/03/06 10:18:59;;;;;;;2.63;0.40;;;6.20;74.30;;;;;;5054367;28;20052;-83
2021/03/06 10:21:25;;;;;;;6.23;0.60;;;6.30;73.70;;;;;;5054377;28;20025;-82
2021/03/06 10:23:51;;;;;;;4.47;0.77;;;6.40;72.90;;;;;;5075166;28;20043;-82
2021/03/06 10:26:25;;;;;;;3.37;0.43;;;6.40;71.80;;;;;;5057610;28;20111;-82
2021/03/06 10:28:59;;;;;;;3.70;0.40;;;6.40;70.80;;;;;;5075604;28;20045;-81
2021/03/06 10:31:33;;;;;;;3.75;0.40;;;6.50;69.90;;;;;;5057789;28;20115;-80
2021/03/06 10:34:18;;;;;;;2.20;0.38;;;6.50;68.50;;;;;;5075210;28;20070;-80
2021/03/06 10:36:45;;;;;;;3.53;0.40;;;6.80;68.10;;;;;;5068067;28;20104;-80
2021/03/06 10:39:12;;;;;;;3.60;0.40;;;6.70;67.50;;;;;;5063383;28;20020;-80
2021/03/06 10:41:38;;;;;;;1.97;0.30;;;6.80;67.40;;;;;;5075113;28;20025;-81
2021/03/06 10:44:03;;;;;;;2.77;0.40;;;6.90;66.80;;;;;;5040487;28;20032;-80
2021/03/06 10:46:32;;;;;;;2.17;0.30;;;6.90;66.40;;;;;;5073902;28;20042;-81
2021/03/06 10:49:04;;;;;;;3.87;0.40;;;7.00;66.20;;;;;;5073697;28;20028;-80
2021/03/06 10:51:43;;;;;;;2.23;0.50;;;7.20;66.00;;;;;;5072178;28;20016;-81
2021/03/06 10:54:10;;;;;;;6.40;0.40;;;7.30;65.70;;;;;;5069331;28;20396;-81
2021/03/06 10:56:36;;;;;;;3.20;0.50;;;7.50;65.60;;;;;;5053569;28;20036;-81
2021/03/06 10:59:03;;;;;;;6.60;0.50;;;7.60;65.80;;;;;;5054684;28;20025;-81
2021/03/06 11:01:33;;;;;;;4.33;0.50;;;7.70;64.20;;;;;;5067224;28;20020;-81
2021/03/06 11:03:59;;;;;;;3.67;0.60;;;8.20;64.50;;;;;;5057022;28;20095;-81
2021/03/06 11:06:25;;;;;;;1.53;0.40;;;8.70;63.60;;;;;;5073127;28;20044;-81
2021/03/06 11:09:04;;;;;;;2.60;0.50;;;9.30;63.00;;;;;;5056649;28;20094;-79
2021/03/06 11:11:30;;;;;;;3.67;0.55;;;10.20;62.70;;;;;;5074693;28;20028;-80
2021/03/06 11:13:56;;;;;;;2.22;0.30;;;11.20;63.00;;;;;;5070796;28;20040;-81
2021/03/06 11:16:39;;;;;;;3.83;0.38;;;12.20;63.00;;;;;;5073634;28;20111;-81
2021/03/06 11:19:05;;;;;;;2.88;0.38;;;13.20;59.50;;;;;;5076353;28;20098;-81
2021/03/06 11:21:30;;;;;;;1.70;0.30;;;13.90;59.20;;;;;;5073135;28;20017;-82
2021/03/06 11:23:56;;;;;;;3.63;0.32;;;14.40;56.80;;;;;;5071584;28;20138;-81
2021/03/06 11:26:21;;;;;;;5.40;0.57;;;14.70;54.50;;;;;;5054420;28;20451;-79
2021/03/06 11:28:47;;;;;;;2.15;0.30;;;14.90;52.80;;;;;;5053121;28;20033;-80
2021/03/06 11:31:13;;;;;;;3.38;0.47;;;15.10;51.30;;;;;;5053616;28;20078;-81
2021/03/06 11:33:38;;;;;;;2.42;0.35;;;15.20;49.90;;;;;;5074235;28;20036;-79
2021/03/06 11:36:04;;;;;;;3.70;0.38;;;15.40;48.60;;;;;;5074382;28;20115;-79
2021/03/06 11:38:30;;;;;;;1.95;0.30;;;15.40;47.50;;;;;;5072801;28;20107;-79
2021/03/06 11:40:56;;;;;;;6.03;1.17;;;15.40;46.60;;;;;;5073954;28;20028;-77
2021/03/06 11:43:22;;;;;;;4.45;1.00;;;15.40;46.20;;;;;;5071886;28;20044;-77
2021/03/06 11:45:47;;;;;;;3.45;1.05;;;15.50;46.70;;;;;;5072718;28;20480;-78
2021/03/06 11:48:13;;;;;;;3.13;0.80;;;15.40;46.00;;;;;;5073964;28;20029;-77
2021/03/06 11:50:46;;;;;;;4.20;1.08;;;15.40;45.70;;;;;;5071821;28;20041;-77
2021/03/06 11:53:11;;;;;;;4.22;1.00;;;15.50;45.40;;;;;;5073060;28;20388;-78
2021/03/06 11:55:37;;;;;;;4.65;1.05;;;15.50;45.90;;;;;;5073554;28;20029;-78
2021/03/06 11:58:04;;;;;;;2.97;0.75;;;15.50;45.20;;;;;;5072232;28;20591;-78
2021/03/06 12:00:31;;;;;;;2.13;0.70;;;15.60;44.80;;;;;;5073517;28;20020;-80
2021/03/06 12:02:57;;;;;;;4.78;0.98;;;15.60;44.60;;;;;;5072239;28;20016;-78
2021/03/06 12:05:23;;;;;;;2.03;0.57;;;15.70;44.30;;;;;;5072216;28;20384;-78
2021/03/06 12:07:50;;;;;;;2.55;0.85;;;15.80;44.20;;;;;;5051943;28;20025;-77
2021/03/06 12:10:19;;;;;;;4.40;0.93;;;15.80;43.90;;;;;;5053409;28;20021;-76
2021/03/06 12:12:46;;;;;;;2.70;0.57;;;15.90;43.70;;;;;;5053024;28;20451;-77
2021/03/06 12:15:14;;;;;;;1.63;0.40;;;15.90;43.80;;;;;;5060346;28;20021;-76
2021/03/06 12:17:40;;;;;;;1.35;0.30;;;15.90;43.50;;;;;;5072187;28;20499;-77
2021/03/06 12:20:07;;;;;;;1.50;0.32;;;15.90;42.70;;;;;;5072065;28;20032;-77
2021/03/06 12:22:33;;;;;;;1.60;0.30;;;16.10;42.00;;;;;;5071926;28;20388;-79
2021/03/06 12:24:59;;;;;;;1.40;0.30;;;16.30;41.50;;;;;;5058925;28;20037;-77
2021/03/06 12:27:24;;;;;;;0.45;0.20;;;16.60;41.00;;;;;;5035089;28;20365;-75
2021/03/06 12:29:50;;;;;;;1.55;0.30;;;16.80;40.00;;;;;;5018738;28;20021;-75
2021/03/06 12:32:16;;;;;;;3.08;0.50;;;17.00;39.50;;;;;;5059252;28;20050;-76
2021/03/06 12:34:41;;;;;;;2.33;0.40;;;17.20;39.10;;;;;;5071887;28;20116;-76
2021/03/06 12:37:07;;;;;;;2.47;0.47;;;17.30;38.60;;;;;;5051416;28;20036;-75
2021/03/06 12:39:32;;;;;;;2.92;0.30;;;17.30;38.00;;;;;;5055030;28;20024;-76
2021/03/06 12:41:59;;;;;;;2.88;0.30;;;17.30;37.80;;;;;;5055174;28;20052;-76
2021/03/06 12:44:25;;;;;;;2.45;0.50;;;17.50;37.50;;;;;;5073057;28;20411;-75
2021/03/06 12:46:50;;;;;;;1.92;0.28;;;17.70;37.50;;;;;;5071723;28;20028;-76
2021/03/06 12:49:18;;;;;;;2.15;0.30;;;17.90;37.30;;;;;;5071919;28;20032;-75
2021/03/06 12:51:43;;;;;;;3.10;0.40;;;18.20;36.70;;;;;;5071755;28;20128;-83
2021/03/06 12:54:09;;;;;;;3.40;0.50;;;18.40;36.00;;;;;;5073798;28;20072;-82
2021/03/06 12:56:35;;;;;;;1.45;0.40;;;18.50;35.50;;;;;;5070995;28;20029;-82
2021/03/06 12:59:01;;;;;;;2.78;0.50;;;18.70;35.50;;;;;;5055121;28;20081;-83
2021/03/06 13:01:27;;;;;;;2.63;0.40;;;18.90;35.40;;;;;;5071827;28;20021;-83
2021/03/06 13:03:52;;;;;;;3.80;0.45;;;19.20;35.20;;;;;;5056510;28;20025;-85
2021/03/06 13:06:18;;;;;;;1.90;0.40;;;19.50;34.70;;;;;;5041367;28;20128;-81